createdAt,value
2023-01-31T00:01:35.108Z,23.17
2023-01-31T00:04:07.312Z,18.85
2023-01-31T00:06:38.725Z,27.40
2023-01-31T00:09:07.527Z,19.55
2023-01-31T00:11:35.181Z,22.80
2023-01-31T00:14:05.546Z,23.15
2023-01-31T00:16:32.664Z,19.25
2023-01-31T00:18:59.608Z,20.15
2023-01-31T00:21:29.088Z,18.08
2023-01-31T00:23:57.074Z,21.15
2023-01-31T00:26:26.973Z,23.13
2023-01-31T00:28:55.912Z,26.13
2023-01-31T00:31:24.793Z,19.58
2023-01-31T00:33:53.604Z,17.58
2023-01-31T00:36:25.269Z,21.55
2023-01-31T00:38:54.153Z,26.55
2023-01-31T00:41:23.290Z,24.52
2023-01-31T00:43:50.631Z,26.58
2023-01-31T00:46:20.430Z,21.17
2023-01-31T00:48:47.990Z,23.05
2023-01-31T00:51:15.237Z,21.27
2023-01-31T00:53:42.244Z,20.85
2023-01-31T00:56:11.492Z,25.75
2023-01-31T00:58:41.735Z,15.60
2023-01-31T01:01:11.951Z,13.85
2023-01-31T01:03:40.066Z,18.05
2023-01-31T01:06:08.264Z,20.95
2023-01-31T01:08:37.133Z,16.77
2023-01-31T01:11:12.045Z,23.95
2023-01-31T01:13:39.765Z,35.05
2023-01-31T01:16:12.692Z,21.17
2023-01-31T01:18:40.170Z,16.15
2023-01-31T01:21:13.177Z,17.25
2023-01-31T01:23:41.150Z,18.48
2023-01-31T01:26:18.277Z,24.85
2023-01-31T01:28:45.635Z,25.45
2023-01-31T01:31:14.352Z,18.27
2023-01-31T01:33:41.548Z,19.75
2023-01-31T01:36:13.319Z,17.75
2023-01-31T01:38:42.253Z,28.10
2023-01-31T01:41:10.438Z,24.02
2023-01-31T01:43:55.866Z,27.38
2023-01-31T01:46:44.653Z,18.70
2023-01-31T01:49:20.670Z,12.75
2023-01-31T01:51:51.235Z,22.15
2023-01-31T01:54:26.267Z,18.20
2023-01-31T01:56:59.009Z,19.80
2023-01-31T01:59:38.721Z,17.25
2023-01-31T02:02:06.094Z,12.23
2023-01-31T02:04:37.101Z,21.02
2023-01-31T02:07:05.516Z,18.20
2023-01-31T02:09:48.860Z,19.02
2023-01-31T02:12:16.115Z,15.32
2023-01-31T02:14:44.861Z,15.85
2023-01-31T02:17:14.106Z,15.18
2023-01-31T02:19:48.308Z,17.38
2023-01-31T02:22:38.959Z,21.17
2023-01-31T02:25:22.704Z,14.80
2023-01-31T02:28:14.849Z,22.63
2023-01-31T02:31:04.034Z,21.65
2023-01-31T02:33:53.863Z,19.65
2023-01-31T02:36:34.143Z,16.10
2023-01-31T02:39:39.212Z,17.52
2023-01-31T02:45:00.762Z,21.05
2023-01-31T02:47:54.214Z,22.42
2023-01-31T02:50:30.165Z,19.17
2023-01-31T02:53:03.555Z,11.80
2023-01-31T02:55:59.536Z,20.92
2023-01-31T02:58:31.526Z,17.87
2023-01-31T03:01:04.014Z,14.27
2023-01-31T03:03:36.816Z,21.92
2023-01-31T03:06:25.411Z,19.95
2023-01-31T03:08:58.578Z,17.65
2023-01-31T03:12:07.855Z,23.55
2023-01-31T03:14:50.785Z,21.30
2023-01-31T03:17:39.590Z,19.58
2023-01-31T03:20:18.919Z,13.88
2023-01-31T03:22:52.256Z,24.52
2023-01-31T03:25:24.655Z,17.95
2023-01-31T03:27:59.957Z,24.73
2023-01-31T03:30:52.209Z,21.58
2023-01-31T03:33:26.827Z,14.10
2023-01-31T03:36:02.505Z,23.17
2023-01-31T03:38:37.150Z,19.92
2023-01-31T03:41:13.703Z,20.10
2023-01-31T03:43:54.734Z,21.13
2023-01-31T03:46:29.035Z,19.10
2023-01-31T03:48:58.717Z,25.52
2023-01-31T03:51:30.368Z,17.58
2023-01-31T03:54:04.824Z,18.42
2023-01-31T03:56:41.435Z,18.92
2023-01-31T03:59:20.035Z,24.17
2023-01-31T04:01:50.161Z,17.85
2023-01-31T04:04:26.811Z,19.95
2023-01-31T04:06:54.619Z,15.48
2023-01-31T04:09:23.178Z,16.88
2023-01-31T04:11:51.271Z,20.52
2023-01-31T04:14:19.343Z,14.73
2023-01-31T04:16:46.531Z,23.50
2023-01-31T04:19:13.498Z,13.82
2023-01-31T04:21:40.543Z,16.88
2023-01-31T04:24:09.560Z,12.57
2023-01-31T04:26:37.096Z,14.93
2023-01-31T04:29:04.861Z,17.90
2023-01-31T04:31:32.553Z,15.35
2023-01-31T04:33:59.916Z,14.02
2023-01-31T04:36:27.309Z,18.20
2023-01-31T04:38:54.307Z,22.90
2023-01-31T04:41:21.395Z,16.80
2023-01-31T04:43:48.413Z,15.20
2023-01-31T04:46:15.452Z,19.98
2023-01-31T04:48:42.460Z,15.48
2023-01-31T04:51:09.881Z,21.60
2023-01-31T04:53:37.070Z,18.38
2023-01-31T04:56:05.140Z,21.83
2023-01-31T04:58:32.463Z,26.08
2023-01-31T05:00:59.812Z,19.65
2023-01-31T05:03:27.087Z,16.15
2023-01-31T05:05:54.112Z,22.65
2023-01-31T05:08:21.044Z,27.58
2023-01-31T05:10:48.549Z,21.70
2023-01-31T05:13:15.511Z,14.48
2023-01-31T05:15:42.524Z,20.98
2023-01-31T05:18:09.532Z,20.10
2023-01-31T05:20:40.917Z,16.05
2023-01-31T05:23:08.155Z,18.65
2023-01-31T05:25:36.199Z,20.45
2023-01-31T05:28:04.565Z,20.35
2023-01-31T05:30:31.770Z,15.80
2023-01-31T05:32:58.827Z,18.02
2023-01-31T05:35:25.892Z,24.38
2023-01-31T05:37:56.174Z,19.77
2023-01-31T05:40:24.007Z,29.15
2023-01-31T05:42:55.644Z,23.65
2023-01-31T05:45:23.083Z,19.35
2023-01-31T05:47:50.462Z,21.00
2023-01-31T05:50:18.275Z,18.88
2023-01-31T05:52:54.680Z,26.45
2023-01-31T05:55:22.984Z,14.18
2023-01-31T05:57:50.124Z,23.50
2023-01-31T06:00:17.496Z,17.77
2023-01-31T06:02:44.616Z,15.82
2023-01-31T06:05:12.325Z,18.88
2023-01-31T06:07:39.851Z,16.40
2023-01-31T06:10:08.553Z,23.35
2023-01-31T06:12:36.530Z,23.27
2023-01-31T06:15:04.727Z,22.55
2023-01-31T06:17:31.730Z,17.55
2023-01-31T06:19:59.113Z,24.25
2023-01-31T06:22:26.165Z,16.77
2023-01-31T06:24:53.214Z,30.85
2023-01-31T06:27:20.175Z,31.13
2023-01-31T06:29:47.228Z,22.40
2023-01-31T06:32:14.199Z,24.00
2023-01-31T06:34:41.260Z,25.88
2023-01-31T06:37:11.429Z,22.05
2023-01-31T06:39:38.514Z,14.82
2023-01-31T06:42:06.178Z,24.35
2023-01-31T06:44:33.652Z,25.30
2023-01-31T06:47:01.538Z,19.40
2023-01-31T06:49:28.915Z,19.85
2023-01-31T06:51:56.638Z,32.78
2023-01-31T06:54:23.805Z,27.80
2023-01-31T06:56:50.811Z,24.70
2023-01-31T06:59:17.856Z,21.75
2023-01-31T07:01:44.941Z,23.85
2023-01-31T07:04:12.089Z,28.60
2023-01-31T07:06:39.073Z,24.27
2023-01-31T07:09:06.178Z,27.73
2023-01-31T07:11:33.258Z,23.60
2023-01-31T07:14:00.302Z,24.63
2023-01-31T07:16:27.283Z,20.02
2023-01-31T07:18:55.402Z,21.42
2023-01-31T07:21:24.073Z,33.47
2023-01-31T07:23:51.147Z,31.60
2023-01-31T07:26:18.322Z,27.50
2023-01-31T07:28:45.345Z,22.38
2023-01-31T07:31:14.453Z,25.27
2023-01-31T07:33:42.005Z,25.52
2023-01-31T07:36:13.985Z,28.27
2023-01-31T07:38:41.538Z,24.10
2023-01-31T07:41:10.713Z,24.63
2023-01-31T07:43:38.714Z,29.80
2023-01-31T07:46:10.523Z,24.55
2023-01-31T07:48:38.170Z,26.52
2023-01-31T07:51:06.009Z,25.52
2023-01-31T07:53:35.552Z,26.52
2023-01-31T07:56:21.943Z,29.58
2023-01-31T07:58:50.322Z,28.75
2023-01-31T08:01:43.673Z,22.15
2023-01-31T08:04:21.248Z,30.30
2023-01-31T08:06:50.987Z,31.45
2023-01-31T08:09:18.170Z,30.38
2023-01-31T08:11:45.169Z,30.70
2023-01-31T08:14:12.101Z,33.97
2023-01-31T08:16:39.935Z,25.02
2023-01-31T08:19:06.894Z,23.45
2023-01-31T08:21:33.907Z,26.30
2023-01-31T08:24:00.880Z,28.48
2023-01-31T08:26:27.938Z,22.48
2023-01-31T08:28:55.131Z,29.75
2023-01-31T08:31:25.297Z,33.05
2023-01-31T08:33:53.456Z,31.25
2023-01-31T08:36:26.370Z,32.65
2023-01-31T08:38:54.149Z,39.92
2023-01-31T08:41:23.169Z,33.67
2023-01-31T08:43:58.923Z,28.73
2023-01-31T08:46:30.734Z,31.77
2023-01-31T08:48:58.683Z,32.05
2023-01-31T08:51:25.717Z,28.90
2023-01-31T08:53:54.183Z,26.40
2023-01-31T08:56:25.429Z,28.67
2023-01-31T08:58:54.282Z,36.08
2023-01-31T09:01:22.748Z,29.73
2023-01-31T09:03:50.819Z,37.30
2023-01-31T09:06:20.690Z,26.80
2023-01-31T09:08:47.894Z,34.38
2023-01-31T09:11:19.690Z,38.03
2023-01-31T09:13:52.285Z,28.35
2023-01-31T09:16:21.110Z,32.67
2023-01-31T09:18:48.514Z,32.75
2023-01-31T09:21:18.713Z,27.35
2023-01-31T09:23:47.162Z,28.35
2023-01-31T09:26:16.267Z,44.35
2023-01-31T09:28:43.785Z,31.63
2023-01-31T09:31:13.599Z,35.53
2023-01-31T09:33:41.180Z,30.63
2023-01-31T09:36:15.461Z,37.55
2023-01-31T09:38:42.717Z,30.10
2023-01-31T09:41:34.238Z,40.45
2023-01-31T09:44:21.979Z,24.70
2023-01-31T09:47:02.637Z,49.90
2023-01-31T09:49:38.121Z,36.92
2023-01-31T09:52:05.373Z,32.20
2023-01-31T09:54:37.414Z,31.38
2023-01-31T09:57:41.158Z,27.52
2023-01-31T10:00:22.039Z,36.00
2023-01-31T10:03:07.517Z,29.70
2023-01-31T10:05:56.970Z,37.58
2023-01-31T10:08:48.185Z,33.20
2023-01-31T10:11:30.597Z,42.67
2023-01-31T10:14:34.895Z,30.77
2023-01-31T10:17:13.526Z,38.90
2023-01-31T10:19:47.620Z,32.10
2023-01-31T10:24:55.963Z,35.88
2023-01-31T10:28:03.450Z,37.92
2023-01-31T10:30:57.641Z,37.15
2023-01-31T10:33:57.006Z,33.92
2023-01-31T10:36:30.473Z,32.83
2023-01-31T10:39:01.589Z,26.60
2023-01-31T10:41:43.473Z,28.98
2023-01-31T10:44:32.403Z,35.08
2023-01-31T10:47:00.488Z,31.20
2023-01-31T10:49:28.797Z,31.63
2023-01-31T10:52:04.596Z,30.58
2023-01-31T10:55:03.388Z,28.38
2023-01-31T10:57:31.818Z,24.00
2023-01-31T10:59:58.975Z,31.33
2023-01-31T11:02:28.231Z,28.20
2023-01-31T11:04:57.641Z,26.38
2023-01-31T11:07:28.634Z,31.05
2023-01-31T11:09:57.177Z,29.75
2023-01-31T11:12:42.861Z,27.48
2023-01-31T11:15:18.564Z,25.58
2023-01-31T11:17:47.551Z,28.92
2023-01-31T11:20:36.185Z,22.13
2023-01-31T11:23:06.620Z,23.38
2023-01-31T11:25:35.508Z,27.23
2023-01-31T11:28:16.422Z,35.03
2023-01-31T11:30:50.274Z,24.15
2023-01-31T11:33:39.464Z,21.48
2023-01-31T11:36:13.376Z,26.23
2023-01-31T11:38:41.142Z,29.80
2023-01-31T11:41:43.553Z,27.48
2023-01-31T11:44:16.556Z,22.83
2023-01-31T11:46:48.251Z,21.77
2023-01-31T11:49:27.078Z,34.05
2023-01-31T11:51:55.090Z,28.40
2023-01-31T11:54:26.951Z,29.23
2023-01-31T11:56:55.896Z,25.27
2023-01-31T11:59:27.637Z,14.77
2023-01-31T12:01:57.783Z,27.42
2023-01-31T12:04:30.803Z,25.05
2023-01-31T12:07:03.577Z,23.77
2023-01-31T12:09:41.411Z,22.80
2023-01-31T12:12:34.508Z,21.42
2023-01-31T12:15:14.684Z,22.95
2023-01-31T12:17:46.401Z,17.20
2023-01-31T12:20:28.205Z,23.38
2023-01-31T12:23:12.727Z,24.38
2023-01-31T12:25:51.221Z,19.70
2023-01-31T12:28:42.313Z,20.33
2023-01-31T12:31:15.421Z,18.63
2023-01-31T12:34:01.576Z,21.67
2023-01-31T12:36:42.810Z,23.45
2023-01-31T12:39:18.707Z,25.67
2023-01-31T12:42:24.507Z,20.17
2023-01-31T12:45:19.049Z,25.08
2023-01-31T12:48:13.325Z,19.63
2023-01-31T12:50:49.792Z,26.20
2023-01-31T12:53:35.644Z,21.58
2023-01-31T12:56:30.988Z,19.98
2023-01-31T13:01:52.612Z,14.38
2023-01-31T13:04:31.719Z,19.27
2023-01-31T13:07:02.978Z,20.85
2023-01-31T13:09:36.137Z,16.15
2023-01-31T13:12:06.172Z,23.00
2023-01-31T13:14:40.823Z,21.48
2023-01-31T13:17:13.638Z,23.98
2023-01-31T13:19:46.434Z,21.25
2023-01-31T13:22:29.617Z,18.05
2023-01-31T13:25:06.188Z,15.75
2023-01-31T13:27:41.050Z,21.27
2023-01-31T13:30:23.721Z,23.83
2023-01-31T13:32:55.447Z,19.20
2023-01-31T13:35:28.266Z,21.25
2023-01-31T13:38:03.165Z,17.73
2023-01-31T13:40:41.493Z,16.83
2023-01-31T13:43:15.308Z,16.42
2023-01-31T13:45:55.332Z,20.20
2023-01-31T13:48:55.913Z,15.57
2023-01-31T13:51:34.405Z,18.52
2023-01-31T13:54:20.415Z,18.27
2023-01-31T13:56:54.528Z,17.77
2023-01-31T13:59:27.530Z,14.23
2023-01-31T14:01:56.741Z,18.63
2023-01-31T14:04:27.722Z,11.90
2023-01-31T14:07:13.385Z,15.43
2023-01-31T14:09:45.709Z,11.52
2023-01-31T14:12:19.823Z,14.07
2023-01-31T14:14:51.442Z,16.45
2023-01-31T14:17:21.501Z,14.95
2023-01-31T14:19:49.534Z,14.48
2023-01-31T14:22:19.265Z,11.40
2023-01-31T14:24:56.788Z,11.93
2023-01-31T14:27:31.398Z,13.15
2023-01-31T14:30:07.524Z,11.93
2023-01-31T14:32:40.914Z,11.18
2023-01-31T14:35:13.877Z,17.37
2023-01-31T14:38:11.347Z,9.52
2023-01-31T14:41:08.937Z,9.88
2023-01-31T14:43:59.264Z,9.45
2023-01-31T14:46:51.442Z,9.82
2023-01-31T14:49:27.505Z,12.15
2023-01-31T14:52:07.676Z,11.32
2023-01-31T14:55:20.020Z,7.90
2023-01-31T14:57:50.808Z,8.63
2023-01-31T15:00:22.974Z,6.55
2023-01-31T15:03:05.067Z,6.88
2023-01-31T15:05:32.116Z,4.97
2023-01-31T15:08:13.676Z,4.75
2023-01-31T15:11:04.688Z,6.45
2023-01-31T15:13:39.997Z,4.57
2023-01-31T15:16:12.268Z,4.13
2023-01-31T15:18:39.860Z,7.50
2023-01-31T15:21:08.840Z,10.13
2023-01-31T15:23:40.809Z,8.40
2023-01-31T15:26:09.040Z,11.88
2023-01-31T15:28:42.478Z,6.70
2023-01-31T15:31:27.879Z,8.60
2023-01-31T15:33:58.996Z,7.63
2023-01-31T15:36:45.735Z,5.35
2023-01-31T15:39:30.838Z,9.02
2023-01-31T15:41:57.976Z,6.15
2023-01-31T15:44:28.233Z,5.07
2023-01-31T15:46:58.244Z,6.07
2023-01-31T15:49:40.091Z,7.00
2023-01-31T15:52:16.120Z,7.05
2023-01-31T15:54:54.760Z,5.68
2023-01-31T15:57:25.861Z,6.43
2023-01-31T15:59:53.908Z,8.63
2023-01-31T16:02:30.465Z,10.82
2023-01-31T16:04:57.962Z,7.55
2023-01-31T16:07:29.289Z,8.93
2023-01-31T16:09:58.345Z,10.20
2023-01-31T16:12:26.255Z,12.02
2023-01-31T16:14:59.292Z,6.88
2023-01-31T16:17:28.129Z,19.20
2023-01-31T16:19:55.824Z,15.00
2023-01-31T16:22:30.584Z,15.20
2023-01-31T16:25:00.701Z,15.90
2023-01-31T16:27:32.744Z,13.13
2023-01-31T16:30:00.479Z,16.90
2023-01-31T16:32:33.953Z,14.32
2023-01-31T16:35:02.669Z,17.08
2023-01-31T16:37:39.885Z,15.90
2023-01-31T16:40:22.719Z,16.27
2023-01-31T16:42:49.933Z,15.65
2023-01-31T16:45:50.276Z,14.90
2023-01-31T16:48:35.114Z,23.85
2023-01-31T16:51:22.094Z,14.70
2023-01-31T16:54:16.965Z,16.23
2023-01-31T16:56:48.654Z,17.40
2023-01-31T16:59:34.364Z,12.35
2023-01-31T17:02:14.953Z,13.40
2023-01-31T17:04:42.717Z,16.23
2023-01-31T17:07:18.898Z,18.45
2023-01-31T17:09:47.358Z,18.52
2023-01-31T17:12:24.378Z,17.98
2023-01-31T17:14:58.672Z,16.27
2023-01-31T17:17:34.721Z,20.52
2023-01-31T17:20:02.161Z,16.25
2023-01-31T17:22:29.231Z,25.50
2023-01-31T17:24:56.244Z,22.42
2023-01-31T17:27:23.999Z,16.48
2023-01-31T17:29:51.013Z,18.67
2023-01-31T17:32:20.260Z,18.20
2023-01-31T17:34:48.988Z,19.67
2023-01-31T17:37:20.883Z,21.55
2023-01-31T17:39:50.874Z,19.40
2023-01-31T17:42:20.848Z,21.13
2023-01-31T17:44:48.175Z,19.98
2023-01-31T17:47:15.900Z,23.00
2023-01-31T17:49:44.510Z,19.20
2023-01-31T17:52:12.271Z,15.55
2023-01-31T17:54:39.385Z,25.27
2023-01-31T17:57:06.326Z,20.02
2023-01-31T17:59:33.380Z,21.00
2023-01-31T18:02:00.685Z,18.80
2023-01-31T18:04:27.725Z,18.45
2023-01-31T18:06:55.160Z,22.08
2023-01-31T18:09:22.236Z,18.98
2023-01-31T18:11:49.219Z,20.90
2023-01-31T18:14:16.463Z,20.05
2023-01-31T18:16:43.491Z,22.95
2023-01-31T18:19:11.683Z,16.25
2023-01-31T18:21:43.878Z,23.13
2023-01-31T18:24:14.275Z,19.45
2023-01-31T18:26:41.356Z,20.65
2023-01-31T18:29:08.654Z,20.58
2023-01-31T18:31:35.763Z,21.25
2023-01-31T18:34:02.796Z,20.30
2023-01-31T18:36:29.849Z,21.98
2023-01-31T18:38:56.878Z,23.95
2023-01-31T18:41:23.879Z,18.13
2023-01-31T18:43:50.980Z,18.55
2023-01-31T18:46:18.368Z,20.23
2023-01-31T18:48:45.907Z,28.38
2023-01-31T18:51:14.970Z,22.08
2023-01-31T18:53:45.591Z,33.03
2023-01-31T18:56:17.918Z,27.02
2023-01-31T18:58:46.048Z,22.10
2023-01-31T19:01:17.563Z,25.38
2023-01-31T19:03:46.799Z,17.38
2023-01-31T19:06:19.213Z,25.42
2023-01-31T19:08:50.948Z,23.77
2023-01-31T19:11:19.714Z,20.23
2023-01-31T19:13:47.093Z,24.25
2023-01-31T19:16:20.526Z,24.48
2023-01-31T19:18:48.720Z,27.35
2023-01-31T19:21:16.871Z,24.70
2023-01-31T19:23:44.760Z,20.13
2023-01-31T19:26:13.321Z,25.90
2023-01-31T19:28:40.928Z,24.25
2023-01-31T19:31:10.448Z,23.23
2023-01-31T19:33:38.211Z,24.00
2023-01-31T19:36:12.224Z,16.48
2023-01-31T19:41:13.325Z,18.65
2023-01-31T19:43:41.239Z,19.48
2023-01-31T19:46:08.910Z,25.45
2023-01-31T19:48:36.101Z,14.20
2023-01-31T19:51:11.682Z,18.13
2023-01-31T19:53:39.587Z,15.85
2023-01-31T19:56:07.323Z,17.08
2023-01-31T19:58:34.770Z,21.08
2023-01-31T20:01:03.449Z,22.23
2023-01-31T20:03:30.602Z,22.13
2023-01-31T20:06:05.709Z,20.27
2023-01-31T20:08:32.728Z,22.85
2023-01-31T20:10:59.709Z,21.73
2023-01-31T20:13:27.073Z,21.30
2023-01-31T20:16:01.789Z,22.10
2023-01-31T20:18:31.046Z,23.52
2023-01-31T20:20:58.353Z,26.45
2023-01-31T20:23:25.687Z,16.98
2023-01-31T20:25:53.258Z,23.42
2023-01-31T20:28:21.041Z,21.42
2023-01-31T20:30:48.798Z,19.15
2023-01-31T20:33:16.809Z,19.67
2023-01-31T20:35:44.106Z,19.65
2023-01-31T20:38:11.799Z,24.45
2023-01-31T20:40:39.007Z,19.88
2023-01-31T20:43:10.338Z,20.85
2023-01-31T20:45:37.728Z,18.95
2023-01-31T20:48:08.083Z,27.42
2023-01-31T20:50:35.296Z,22.05
2023-01-31T20:53:02.225Z,21.15
2023-01-31T20:55:30.605Z,24.50
2023-01-31T20:57:58.567Z,24.63
2023-01-31T21:00:26.108Z,19.98
2023-01-31T21:02:53.280Z,19.38
2023-01-31T21:05:20.423Z,30.38
2023-01-31T21:07:47.349Z,22.15
2023-01-31T21:10:14.485Z,28.13
2023-01-31T21:12:41.392Z,22.17
2023-01-31T21:15:09.016Z,21.58
2023-01-31T21:17:40.359Z,20.10
2023-01-31T21:20:08.918Z,20.55
2023-01-31T21:22:35.873Z,25.85
2023-01-31T21:25:02.958Z,20.75
2023-01-31T21:27:29.929Z,30.50
2023-01-31T21:29:57.023Z,29.92
2023-01-31T21:32:24.016Z,25.58
2023-01-31T21:34:52.313Z,33.35
2023-01-31T21:37:19.400Z,23.08
2023-01-31T21:39:46.432Z,28.88
2023-01-31T21:42:16.676Z,24.27
2023-01-31T21:44:45.237Z,27.65
2023-01-31T21:47:13.631Z,23.90
2023-01-31T21:49:40.982Z,28.40
2023-01-31T21:52:08.709Z,25.65
2023-01-31T21:54:35.747Z,20.95
2023-01-31T21:57:02.688Z,20.08
2023-01-31T21:59:29.690Z,25.88
2023-01-31T22:01:56.739Z,30.88
2023-01-31T22:04:23.821Z,31.10
2023-01-31T22:06:51.304Z,25.73
2023-01-31T22:09:18.477Z,26.85
2023-01-31T22:11:47.635Z,29.17
2023-01-31T22:14:16.572Z,31.17
2023-01-31T22:16:44.675Z,32.40
2023-01-31T22:19:13.156Z,33.08
2023-01-31T22:21:41.313Z,23.55
2023-01-31T22:24:11.605Z,28.27
2023-01-31T22:26:43.613Z,24.17
2023-01-31T22:29:13.514Z,23.95
2023-01-31T22:31:40.764Z,21.08
2023-01-31T22:34:11.404Z,29.65
2023-01-31T22:36:38.536Z,26.10
2023-01-31T22:39:06.062Z,21.85
2023-01-31T22:41:33.289Z,25.98
2023-01-31T22:44:00.253Z,24.55
2023-01-31T22:46:29.158Z,32.08
2023-01-31T22:48:56.688Z,22.73
2023-01-31T22:51:26.264Z,22.63
2023-01-31T22:53:54.503Z,21.08
2023-01-31T22:56:27.214Z,29.60
2023-01-31T22:59:01.898Z,24.42
2023-01-31T23:01:31.968Z,28.73
2023-01-31T23:04:01.125Z,26.77
2023-01-31T23:06:28.720Z,26.10
2023-01-31T23:08:56.794Z,28.42
2023-01-31T23:11:24.717Z,27.65
2023-01-31T23:13:52.549Z,23.60
2023-01-31T23:16:45.088Z,22.85
2023-01-31T23:19:13.003Z,27.92
2023-01-31T23:21:42.817Z,31.35
2023-01-31T23:24:11.055Z,30.20
2023-01-31T23:26:38.422Z,21.65
2023-01-31T23:29:05.877Z,35.72
2023-01-31T23:31:33.091Z,32.03
2023-01-31T23:34:00.703Z,35.95
2023-01-31T23:36:28.179Z,29.95
2023-01-31T23:38:55.199Z,31.00
2023-01-31T23:41:22.164Z,40.85
2023-01-31T23:43:49.152Z,28.98
2023-01-31T23:46:16.307Z,31.80
2023-01-31T23:48:43.443Z,41.90
2023-01-31T23:51:10.452Z,36.28
2023-01-31T23:53:37.523Z,24.98
2023-01-31T23:56:04.659Z,42.15
2023-01-31T23:58:31.666Z,31.23
